Time;durP1;ratioP1;P1;durP2;ratioP2;P2;SDS_P1;SDS_P2;PMS_P1;PMS_P2;Temp;Humidity;BMP_temperature;BMP_pressure;BME280_temperature;BME280_humidity;BME280_pressure;Samples;Min_cycle;Max_cycle;Signal;HPM_P1;HPM_P2
2022/11/17 00:01:14;;;;;;;6.60;4.22;;;;;;;4.06;100.00;153557.94;4990678;28;20497;-75
2022/11/17 00:03:40;;;;;;;5.13;3.90;;;;;;;4.14;100.00;153575.84;4996811;28;20046;-75
2022/11/17 00:06:06;;;;;;;5.57;4.13;;;;;;;4.15;100.00;153579.69;5002848;28;20042;-76
2022/11/17 00:08:32;;;;;;;6.15;4.07;;;;;;;4.14;100.00;153575.84;5003256;28;20208;-75
2022/11/17 00:10:59;;;;;;;6.47;4.55;;;;;;;4.07;100.00;153559.25;4981334;28;20072;-76
2022/11/17 00:16:18;;;;;;;11.02;4.32;;;;;;;4.10;100.00;153568.16;5006121;28;20038;-74
2022/11/17 00:21:28;;;;;;;5.28;4.18;;;;;;;4.12;100.00;153570.72;4990314;28;20033;-75
2022/11/17 00:23:55;;;;;;;5.57;4.70;;;;;;;4.13;100.00;153573.31;5006723;28;20034;-75
2022/11/17 00:26:26;;;;;;;6.43;4.80;;;;;;;4.06;100.00;153557.94;4988052;28;20057;-75
2022/11/17 00:28:58;;;;;;;6.20;4.88;;;;;;;4.14;100.00;153577.09;4971017;28;20050;-75
2022/11/17 00:34:13;;;;;;;5.97;4.95;;;;;;;4.08;100.00;153563.06;5004090;28;20044;-75
2022/11/17 00:36:44;;;;;;;6.03;4.97;;;;;;;4.07;100.00;153559.25;5001996;28;20045;-76
2022/11/17 00:39:11;;;;;;;7.95;4.88;;;;;;;4.09;100.00;153564.38;4999058;28;20038;-75
2022/11/17 00:41:37;;;;;;;5.25;4.75;;;;;;;4.06;100.00;153556.69;5005849;28;20068;-75
2022/11/17 00:44:03;;;;;;;6.75;5.15;;;;;;;4.05;100.00;153554.09;5003692;28;20121;-75
2022/11/17 00:46:29;;;;;;;9.02;5.20;;;;;;;4.06;100.00;153556.69;4973680;28;20038;-75
2022/11/17 00:48:55;;;;;;;10.77;5.38;;;;;;;4.04;100.00;153552.84;4990521;28;20041;-75
2022/11/17 00:51:21;;;;;;;5.38;4.72;;;;;;;4.05;100.00;153555.41;4987914;28;20029;-74
2022/11/17 00:53:47;;;;;;;6.07;5.47;;;;;;;4.03;100.00;153549.00;4985097;28;20116;-76
2022/11/17 00:56:12;;;;;;;7.60;5.57;;;;;;;4.00;100.00;153541.38;4986321;28;20046;-76
2022/11/17 00:58:38;;;;;;;6.38;5.32;;;;;;;4.05;100.00;153554.09;5020072;28;20109;-74
2022/11/17 01:01:04;;;;;;;9.15;6.00;;;;;;;4.02;100.00;153547.75;5003754;28;20057;-75
2022/11/17 01:03:30;;;;;;;7.38;5.90;;;;;;;4.01;100.00;153543.91;4994904;28;20733;-75
2022/11/17 01:06:05;;;;;;;10.10;5.80;;;;;;;4.01;100.00;153545.22;5023740;28;20045;-76
2022/11/17 01:08:31;;;;;;;6.45;5.60;;;;;;;4.02;100.00;153547.75;4990374;28;20087;-76
2022/11/17 01:11:10;;;;;;;6.35;5.65;;;;;;;4.03;100.00;153550.31;4991083;28;20026;-75
2022/11/17 01:13:37;;;;;;;6.80;6.00;;;;;;;3.97;100.00;153533.69;5004269;28;20034;-74
2022/11/17 01:16:09;;;;;;;7.28;6.35;;;;;;;3.95;100.00;153529.84;5011371;28;20044;-74
2022/11/17 01:18:36;;;;;;;8.32;6.38;;;;;;;3.97;100.00;153533.69;4991737;28;20125;-75
2022/11/17 01:21:11;;;;;;;8.77;6.75;;;;;;;4.02;100.00;153546.47;5007588;28;20084;-75
2022/11/17 01:23:38;;;;;;;8.35;6.53;;;;;;;3.94;100.00;153527.31;4987671;28;20037;-75
2022/11/17 01:26:08;;;;;;;8.68;6.93;;;;;;;3.96;100.00;153531.16;4987849;28;20030;-73
2022/11/17 01:28:34;;;;;;;7.95;6.63;;;;;;;3.92;100.00;153522.22;4987179;28;20504;-77
2022/11/17 01:31:02;;;;;;;9.07;6.47;;;;;;;3.93;100.00;153523.47;4983197;28;20104;-75
2022/11/17 01:33:28;;;;;;;7.28;6.57;;;;;;;3.95;100.00;153528.59;4985761;28;20164;-75
2022/11/17 01:35:54;;;;;;;9.23;7.43;;;;;;;3.92;100.00;153522.22;4999310;28;20101;-74
2022/11/17 01:38:20;;;;;;;7.93;7.15;;;;;;;3.90;100.00;153517.13;5019295;28;20076;-75
2022/11/17 01:40:46;;;;;;;9.68;6.78;;;;;;;3.91;100.00;153519.63;5004285;28;20033;-76
2022/11/17 01:43:12;;;;;;;8.02;6.45;;;;;;;3.93;100.00;153524.75;5000577;28;20037;-74
2022/11/17 01:45:37;;;;;;;11.02;7.07;;;;;;;3.88;100.00;153513.28;4988442;28;20194;-74
2022/11/17 01:48:06;;;;;;;10.00;7.72;;;;;;;3.90;100.00;153517.13;5003306;28;20057;-75
2022/11/17 01:50:36;;;;;;;8.00;7.20;;;;;;;3.87;100.00;153510.69;4973104;28;20031;-74
2022/11/17 01:53:10;;;;;;;10.23;7.43;;;;;;;3.87;100.00;153510.69;4988158;28;20557;-74
2022/11/17 01:55:43;;;;;;;9.52;7.35;;;;;;;3.87;100.00;153509.44;4971743;28;20038;-75
2022/11/17 01:58:14;;;;;;;9.07;7.85;;;;;;;3.88;100.00;153511.97;5006570;28;20040;-73
2022/11/17 02:00:40;;;;;;;9.07;7.82;;;;;;;3.84;100.00;153503.06;4987483;28;20088;-76
2022/11/17 02:03:06;;;;;;;9.82;7.57;;;;;;;3.86;100.00;153508.16;5002716;28;20037;-75
2022/11/17 02:05:40;;;;;;;8.20;7.40;;;;;;;3.85;100.00;153504.31;5005648;28;20034;-75
2022/11/17 02:08:06;;;;;;;10.40;7.70;;;;;;;3.81;100.00;153495.38;4967559;28;20046;-75
2022/11/17 02:10:33;;;;;;;8.25;7.45;;;;;;;3.79;100.00;153490.28;4973112;28;20072;-75
2022/11/17 02:13:00;;;;;;;8.55;7.65;;;;;;;3.75;100.00;153480.06;5021569;28;20038;-75
2022/11/17 02:15:28;;;;;;;8.68;7.88;;;;;;;3.75;100.00;153480.06;4993492;28;20041;-75
2022/11/17 02:17:55;;;;;;;8.05;7.25;;;;;;;3.68;100.00;153463.44;4989427;28;20057;-74
2022/11/17 02:20:21;;;;;;;9.27;7.80;;;;;;;3.70;100.00;153467.28;4990108;28;20630;-75
2022/11/17 02:23:08;;;;;;;8.13;7.32;;;;;;;3.70;100.00;153468.56;4991103;28;20103;-76
2022/11/17 02:25:59;;;;;;;9.02;7.60;;;;;;;3.70;100.00;153467.28;5004450;28;20034;-75
2022/11/17 02:28:38;;;;;;;10.85;7.78;;;;;;;3.68;100.00;153462.19;5006982;28;20038;-75
2022/11/17 02:31:25;;;;;;;9.18;7.75;;;;;;;3.68;100.00;153462.19;5005378;28;20038;-74
2022/11/17 02:34:03;;;;;;;11.25;7.55;;;;;;;3.65;100.00;153455.75;4989547;28;20052;-75
2022/11/17 02:36:44;;;;;;;8.50;7.60;;;;;;;3.63;100.00;153450.66;4975955;28;20044;-75
2022/11/17 02:39:37;;;;;;;8.30;7.50;;;;;;;3.64;100.00;153453.25;5006042;28;20064;-76
2022/11/17 02:45:29;;;;;;;7.93;7.13;;;;;;;3.56;100.00;153431.50;5002072;28;20050;-76
2022/11/17 02:47:58;;;;;;;10.82;7.63;;;;;;;3.55;100.00;153429.00;4992491;28;20033;-75
2022/11/17 02:50:27;;;;;;;8.52;7.65;;;;;;;3.54;100.00;153426.41;4989714;28;20172;-73
2022/11/17 02:52:53;;;;;;;8.75;7.85;;;;;;;3.51;100.00;153420.03;4970598;28;20125;-76
2022/11/17 02:55:19;;;;;;;10.40;7.60;;;;;;;3.54;100.00;153426.41;4987627;28;20460;-76
2022/11/17 02:57:44;;;;;;;9.00;7.30;;;;;;;3.52;100.00;153422.56;4970760;28;20088;-75
2022/11/17 03:00:16;;;;;;;10.55;7.65;;;;;;;3.51;100.00;153420.03;5004481;28;20044;-76
2022/11/17 03:03:14;;;;;;;8.38;7.43;;;;;;;3.53;100.00;153423.88;4995655;28;20061;-76
2022/11/17 03:05:57;;;;;;;8.88;7.55;;;;;;;3.46;100.00;153408.53;4988575;28;20096;-74
2022/11/17 03:08:22;;;;;;;8.80;7.90;;;;;;;3.46;100.00;153407.25;4987869;28;20038;-74
2022/11/17 03:11:03;;;;;;;9.50;8.35;;;;;;;3.40;100.00;153391.94;5005883;28;20034;-74
2022/11/17 03:14:16;;;;;;;9.75;7.55;;;;;;;3.40;100.00;153391.94;4999546;28;20041;-76
2022/11/17 03:16:56;;;;;;;9.13;7.95;;;;;;;3.38;100.00;153388.13;4949698;28;20507;-75
2022/11/17 03:19:31;;;;;;;9.13;7.88;;;;;;;3.37;100.00;153384.28;5011003;28;20041;-76
2022/11/17 03:22:13;;;;;;;8.80;7.50;;;;;;;3.35;100.00;153379.19;4995901;28;20116;-74
2022/11/17 03:24:46;;;;;;;10.00;8.23;;;;;;;3.33;100.00;153375.34;4968116;28;20022;-74
2022/11/17 03:27:29;;;;;;;8.35;7.45;;;;;;;3.35;100.00;153379.19;5010365;28;20712;-76
2022/11/17 03:29:58;;;;;;;;;;;;;;;3.36;100.00;153381.75;5008134;28;20030;-76
2022/11/17 03:32:27;;;;;;;9.95;7.18;;;;;;;3.33;100.00;153374.06;5008995;28;20275;-75
2022/11/17 03:35:00;;;;;;;7.82;7.03;;;;;;;3.30;100.00;153367.72;5003578;28;20080;-76
2022/11/17 03:37:29;;;;;;;8.65;7.63;;;;;;;3.29;100.00;153366.38;4996869;28;20030;-75
2022/11/17 03:40:02;;;;;;;10.23;7.25;;;;;;;3.22;100.00;153348.56;4980825;28;20116;-74
2022/11/17 03:42:32;;;;;;;10.13;7.78;;;;;;;3.24;100.00;153352.34;4997532;28;20033;-74
2022/11/17 03:45:16;;;;;;;7.65;6.88;;;;;;;3.26;100.00;153357.50;4979228;28;20845;-75
2022/11/17 03:47:43;;;;;;;8.02;7.20;;;;;;;3.24;100.00;153352.34;5023393;28;20071;-73
2022/11/17 03:50:23;;;;;;;8.60;7.70;;;;;;;3.20;100.00;153342.16;5010069;28;20048;-74
2022/11/17 03:52:49;;;;;;;8.88;7.43;;;;;;;3.18;100.00;153338.31;5013264;28;20038;-75
2022/11/17 03:55:15;;;;;;;8.07;7.30;;;;;;;3.15;100.00;153330.69;5012125;28;20057;-73
2022/11/17 03:58:11;;;;;;;8.38;7.40;;;;;;;3.13;100.00;153325.56;5005647;28;20174;-75
2022/11/17 04:00:39;;;;;;;8.45;7.60;;;;;;;3.15;100.00;153329.41;4993295;28;20053;-74
2022/11/17 04:03:04;;;;;;;9.45;7.03;;;;;;;3.10;100.00;153317.91;5007842;28;20034;-73
2022/11/17 04:05:30;;;;;;;10.85;7.10;;;;;;;3.10;100.00;153317.91;5010395;28;20045;-75
2022/11/17 04:07:56;;;;;;;7.97;7.18;;;;;;;3.08;100.00;153312.78;5012664;28;20480;-76
2022/11/17 04:10:24;;;;;;;8.15;7.28;;;;;;;3.07;100.00;153310.22;4983861;28;20026;-75
2022/11/17 04:18:21;;;;;;;7.72;7.00;;;;;;;3.07;100.00;153311.53;5003282;28;20046;-75
2022/11/17 04:20:55;;;;;;;9.20;7.25;;;;;;;3.11;100.00;153320.47;5005117;28;20193;-75
2022/11/17 04:23:21;;;;;;;7.93;7.13;;;;;;;3.05;100.00;153306.44;5011237;28;20050;-75
2022/11/17 04:28:41;;;;;;;7.70;6.85;;;;;;;3.05;100.00;153305.13;4989732;28;20034;-75
2022/11/17 04:31:27;;;;;;;7.32;6.60;;;;;;;3.05;100.00;153305.13;5005733;28;20048;-76
2022/11/17 04:33:55;;;;;;;8.05;7.25;;;;;;;3.03;100.00;153301.34;5017384;28;20056;-76
2022/11/17 04:36:26;;;;;;;8.75;7.10;;;;;;;3.01;100.00;153294.91;4990059;28;20050;-76
2022/11/17 04:38:54;;;;;;;10.73;7.18;;;;;;;3.01;100.00;153296.19;5007789;28;20423;-74
2022/11/17 04:44:09;;;;;;;7.93;7.00;;;;;;;2.99;100.00;153291.09;5000078;28;20123;-75
2022/11/17 04:46:36;;;;;;;8.55;7.25;;;;;;;2.99;100.00;153291.09;5006938;28;20037;-75
2022/11/17 04:49:03;;;;;;;8.20;7.22;;;;;;;3.02;100.00;153298.75;5006061;28;20036;-73
2022/11/17 04:51:29;;;;;;;8.35;7.55;;;;;;;3.03;100.00;153300.03;5001253;28;20077;-75
2022/11/17 04:53:55;;;;;;;7.75;6.95;;;;;;;3.01;100.00;153296.19;5002351;28;20041;-75
2022/11/17 04:56:22;;;;;;;8.85;7.72;;;;;;;3.01;100.00;153294.91;5024461;28;20408;-75
2022/11/17 04:58:49;;;;;;;11.00;7.78;;;;;;;3.01;100.00;153294.91;5006782;28;20132;-75
2022/11/17 05:01:17;;;;;;;9.02;8.13;;;;;;;3.00;100.00;153292.41;5007663;28;20045;-75
2022/11/17 05:03:48;;;;;;;10.30;7.78;;;;;;;2.94;100.00;153278.34;5008515;28;20068;-74
2022/11/17 05:06:18;;;;;;;8.70;7.78;;;;;;;2.95;100.00;153279.63;5008240;28;20030;-76
2022/11/17 05:08:44;;;;;;;10.00;8.90;;;;;;;2.94;100.00;153278.34;5008921;28;20037;-76
2022/11/17 05:13:56;;;;;;;10.15;8.73;;;;;;;2.92;100.00;153274.53;4992165;28;20030;-75
2022/11/17 05:19:09;;;;;;;9.32;8.32;;;;;;;2.90;100.00;153269.41;4986224;28;20038;-75
2022/11/17 05:21:34;;;;;;;11.98;9.52;;;;;;;2.88;100.00;153264.31;4989324;28;20085;-75
2022/11/17 05:24:00;;;;;;;10.43;8.73;;;;;;;2.91;100.00;153271.94;5004682;28;20499;-76
2022/11/17 05:26:29;;;;;;;10.27;9.18;;;;;;;2.94;100.00;153278.34;5009182;28;20507;-74
2022/11/17 05:28:57;;;;;;;11.18;9.35;;;;;;;2.90;100.00;153268.09;5007571;28;20172;-75
2022/11/17 05:31:24;;;;;;;10.05;8.98;;;;;;;2.91;100.00;153271.94;4975010;28;20033;-75
2022/11/17 05:33:51;;;;;;;11.32;9.02;;;;;;;2.90;100.00;153269.41;4990817;28;20033;-76
2022/11/17 05:36:17;;;;;;;10.10;9.02;;;;;;;2.89;100.00;153266.84;5007985;28;20091;-75
2022/11/17 05:38:44;;;;;;;12.95;9.20;;;;;;;2.90;100.00;153268.09;5012123;28;20033;-74
2022/11/17 05:41:09;;;;;;;11.40;9.57;;;;;;;2.89;100.00;153266.84;4986262;28;20042;-75
2022/11/17 05:43:35;;;;;;;11.45;9.63;;;;;;;2.84;100.00;153254.06;4975225;28;20033;-74
2022/11/17 05:46:01;;;;;;;10.27;9.23;;;;;;;2.84;100.00;153252.81;5005716;28;20360;-73
2022/11/17 05:48:27;;;;;;;12.60;9.45;;;;;;;2.83;100.00;153250.28;5010245;28;20037;-73
2022/11/17 05:50:53;;;;;;;11.05;9.80;;;;;;;2.81;100.00;153245.19;5007244;28;20037;-75
2022/11/17 05:53:20;;;;;;;10.15;9.15;;;;;;;2.82;100.00;153247.69;4990016;28;20037;-75
2022/11/17 05:55:46;;;;;;;11.35;9.68;;;;;;;2.82;100.00;153247.69;4987903;28;20034;-74
2022/11/17 05:58:20;;;;;;;13.23;9.90;;;;;;;2.81;100.00;153245.19;4988520;28;20367;-74
2022/11/17 06:00:46;;;;;;;12.52;10.20;;;;;;;2.81;100.00;153246.44;5002049;28;20171;-75
2022/11/17 06:03:17;;;;;;;12.18;10.05;;;;;;;2.77;100.00;153236.25;5003972;28;20498;-74
2022/11/17 06:05:43;;;;;;;11.00;9.82;;;;;;;2.79;100.00;153240.03;4999866;28;20414;-75
2022/11/17 06:08:08;;;;;;;11.38;10.18;;;;;;;2.79;100.00;153241.34;5006780;28;20157;-74
2022/11/17 06:10:34;;;;;;;12.65;10.77;;;;;;;2.78;100.00;153237.50;4987826;28;20750;-75
2022/11/17 06:13:00;;;;;;;12.23;10.20;;;;;;;2.81;100.00;153246.44;4997857;28;20423;-74
2022/11/17 06:15:25;;;;;;;12.13;10.80;;;;;;;2.73;100.00;153227.31;4993260;28;20132;-75
2022/11/17 06:18:13;;;;;;;12.98;11.20;;;;;;;2.77;100.00;153236.25;5007078;28;20061;-74
2022/11/17 06:20:45;;;;;;;14.05;11.32;;;;;;;2.79;100.00;153240.03;5017797;28;20105;-75
2022/11/17 06:23:11;;;;;;;15.52;11.43;;;;;;;2.80;100.00;153243.88;5006081;28;20030;-73
2022/11/17 06:25:38;;;;;;;16.17;12.60;;;;;;;2.81;100.00;153245.19;5008458;28;20050;-74
2022/11/17 06:28:08;;;;;;;13.32;11.90;;;;;;;2.80;100.00;153242.59;4988450;28;20488;-74
2022/11/17 06:30:35;;;;;;;15.13;12.25;;;;;;;2.83;100.00;153250.28;5007551;28;20030;-74
2022/11/17 06:33:02;;;;;;;15.52;12.57;;;;;;;2.83;100.00;153250.28;4993781;28;20033;-75
2022/11/17 06:35:32;;;;;;;13.93;11.63;;;;;;;2.85;100.00;153255.38;4999483;28;20038;-75
2022/11/17 06:38:01;;;;;;;13.80;11.68;;;;;;;2.86;100.00;153257.91;4982933;28;20034;-74
2022/11/17 06:40:27;;;;;;;13.40;11.15;;;;;;;2.82;100.00;153247.69;5012877;28;20034;-74
2022/11/17 06:43:02;;;;;;;12.02;10.77;;;;;;;2.79;100.00;153241.34;5008156;28;20033;-73
2022/11/17 06:45:35;;;;;;;12.23;10.77;;;;;;;2.78;100.00;153238.75;5008400;28;20096;-74
2022/11/17 06:48:01;;;;;;;12.00;10.55;;;;;;;2.74;100.00;153228.56;5009023;28;20383;-77
2022/11/17 06:50:27;;;;;;;13.38;11.30;;;;;;;2.75;100.00;153231.13;5007903;28;20506;-74
2022/11/17 06:52:57;;;;;;;13.45;11.18;;;;;;;2.73;100.00;153227.31;5006308;28;20038;-75
2022/11/17 06:55:23;;;;;;;12.70;11.27;;;;;;;2.71;100.00;153220.88;4990506;28;20068;-75
2022/11/17 06:57:49;;;;;;;12.40;11.15;;;;;;;2.77;100.00;153234.94;4994037;28;20032;-73
2022/11/17 07:00:15;;;;;;;13.90;11.30;;;;;;;2.73;100.00;153226.00;5008477;28;20051;-74
2022/11/17 07:02:41;;;;;;;12.88;11.02;;;;;;;2.77;100.00;153234.94;5007498;28;20044;-74
2022/11/17 07:05:07;;;;;;;12.68;10.88;;;;;;;2.74;100.00;153228.56;4998761;28;20113;-75
2022/11/17 07:07:33;;;;;;;13.90;10.73;;;;;;;2.70;100.00;153219.63;4990915;28;20030;-75
2022/11/17 07:09:58;;;;;;;14.00;10.93;;;;;;;2.75;100.00;153231.13;4974337;28;20045;-74
2022/11/17 07:12:24;;;;;;;13.30;11.05;;;;;;;2.75;100.00;153229.81;5005611;28;20076;-75
2022/11/17 07:14:50;;;;;;;15.00;11.15;;;;;;;2.73;100.00;153227.31;4983119;28;20202;-74
2022/11/17 07:17:16;;;;;;;13.43;11.23;;;;;;;2.73;100.00;153226.00;4980039;28;20457;-75
2022/11/17 07:19:41;;;;;;;13.25;11.20;;;;;;;2.79;100.00;153241.34;4977299;28;20117;-75
2022/11/17 07:22:07;;;;;;;14.25;10.90;;;;;;;2.73;100.00;153227.31;4998340;28;20038;-74
2022/11/17 07:24:32;;;;;;;12.75;11.00;;;;;;;2.72;100.00;153224.72;5007527;28;20101;-74
2022/11/17 07:27:03;;;;;;;12.50;10.90;;;;;;;2.73;100.00;153227.31;4991822;28;20122;-75
2022/11/17 07:29:29;;;;;;;16.38;11.90;;;;;;;2.78;100.00;153237.50;4984318;28;20595;-75
2022/11/17 07:31:55;;;;;;;18.13;11.35;;;;;;;2.77;100.00;153236.25;4991333;28;20045;-73
2022/11/17 07:34:21;;;;;;;11.70;10.50;;;;;;;2.78;100.00;153237.50;5006014;28;20744;-75
2022/11/17 07:36:47;;;;;;;16.30;11.38;;;;;;;2.78;100.00;153238.75;5007960;28;20044;-74
2022/11/17 07:39:14;;;;;;;12.90;10.60;;;;;;;2.81;100.00;153245.19;4996524;28;20037;-74
2022/11/17 07:41:40;;;;;;;14.50;10.98;;;;;;;2.79;100.00;153240.03;5002896;28;20042;-74
2022/11/17 07:44:06;;;;;;;12.65;10.45;;;;;;;2.76;100.00;153232.41;5001527;28;20117;-75
2022/11/17 07:46:31;;;;;;;14.90;10.65;;;;;;;2.77;100.00;153236.25;5002306;28;20121;-75
2022/11/17 07:48:57;;;;;;;11.40;10.05;;;;;;;2.81;100.00;153246.44;5006441;28;20034;-74
2022/11/17 07:51:23;;;;;;;12.45;10.43;;;;;;;2.79;100.00;153241.34;4997449;28;20052;-75
2022/11/17 07:53:48;;;;;;;11.75;10.18;;;;;;;2.81;100.00;153246.44;4999947;28;20026;-74
2022/11/17 07:56:14;;;;;;;12.35;10.35;;;;;;;2.80;100.00;153242.59;4998167;28;20046;-73
2022/11/17 07:58:40;;;;;;;16.20;10.55;;;;;;;2.74;100.00;153228.56;4986297;28;20416;-75
2022/11/17 08:01:07;;;;;;;12.80;9.85;;;;;;;2.78;100.00;153238.75;4980309;28;20077;-75
2022/11/17 08:03:33;;;;;;;12.45;10.40;;;;;;;2.79;100.00;153241.34;5001227;28;20373;-73
2022/11/17 08:06:04;;;;;;;14.43;10.85;;;;;;;2.82;100.00;153248.97;5008374;28;20104;-74
2022/11/17 08:08:30;;;;;;;14.75;10.63;;;;;;;2.79;100.00;153240.03;4995071;28;20178;-76
2022/11/17 08:10:55;;;;;;;13.63;10.55;;;;;;;2.77;100.00;153236.25;5005516;28;20045;-74
2022/11/17 08:13:23;;;;;;;13.95;10.50;;;;;;;2.80;100.00;153242.59;5007116;28;20513;-73
2022/11/17 08:15:54;;;;;;;12.75;11.00;;;;;;;2.84;100.00;153254.06;5006225;28;20042;-74
2022/11/17 08:18:20;;;;;;;13.00;10.02;;;;;;;2.85;100.00;153256.63;5009155;28;20046;-74
2022/11/17 08:20:46;;;;;;;13.18;10.02;;;;;;;2.83;100.00;153250.28;5008628;28;20030;-73
2022/11/17 08:23:11;;;;;;;12.45;10.40;;;;;;;2.89;100.00;153265.56;4990378;28;20108;-74
2022/11/17 08:25:37;;;;;;;13.40;10.05;;;;;;;2.87;100.00;153260.47;5008159;28;20208;-74
2022/11/17 08:28:03;;;;;;;15.68;10.43;;;;;;;2.83;100.00;153251.53;4992470;28;20435;-73
2022/11/17 08:30:29;;;;;;;13.02;10.88;;;;;;;2.82;100.00;153247.69;5008761;28;20030;-75
2022/11/17 08:32:55;;;;;;;12.25;10.50;;;;;;;2.93;100.00;153275.78;4988035;28;20030;-74
2022/11/17 08:35:23;;;;;;;13.48;11.15;;;;;;;2.96;100.00;153282.16;4988942;28;20045;-74
2022/11/17 08:37:48;;;;;;;15.02;10.85;;;;;;;2.91;100.00;153271.94;5003379;28;20483;-74
2022/11/17 08:40:15;;;;;;;12.55;10.90;;;;;;;2.94;100.00;153278.34;5004376;28;20053;-73
2022/11/17 08:42:40;;;;;;;14.70;10.85;;;;;;;2.96;100.00;153283.47;5004095;28;20053;-75
2022/11/17 08:45:07;;;;;;;16.75;11.50;;;;;;;2.93;100.00;153275.78;4990733;28;20041;-73
2022/11/17 08:47:33;;;;;;;14.00;11.50;;;;;;;2.91;100.00;153270.69;4991672;28;20030;-75
2022/11/17 08:49:59;;;;;;;14.82;10.93;;;;;;;2.91;100.00;153270.69;5003060;28;20743;-74
2022/11/17 08:52:26;;;;;;;15.48;11.65;;;;;;;2.91;100.00;153270.69;4991721;28;20030;-74
2022/11/17 08:54:52;;;;;;;14.77;11.60;;;;;;;2.96;100.00;153282.16;4986246;28;20034;-74
2022/11/17 08:57:20;;;;;;;18.65;12.82;;;;;;;2.96;100.00;153282.16;4991598;28;20512;-75
2022/11/17 08:59:47;;;;;;;14.38;12.00;;;;;;;2.95;100.00;153279.63;5023211;28;20045;-75
2022/11/17 09:02:13;;;;;;;15.48;11.30;;;;;;;2.97;100.00;153284.72;5007120;28;20018;-75
2022/11/17 09:04:39;;;;;;;17.75;12.35;;;;;;;2.95;100.00;153280.88;4984716;28;20038;-74
2022/11/17 09:07:04;;;;;;;17.63;12.10;;;;;;;3.02;100.00;153297.50;4988572;28;20847;-75
2022/11/17 09:09:31;;;;;;;15.57;12.07;;;;;;;3.03;100.00;153300.03;4991282;28;20040;-73
2022/11/17 09:11:58;;;;;;;15.65;12.63;;;;;;;3.00;100.00;153292.41;5004477;28;20491;-76
2022/11/17 09:14:24;;;;;;;17.27;12.90;;;;;;;2.99;100.00;153289.81;4990358;28;20048;-74
2022/11/17 09:16:49;;;;;;;16.02;12.38;;;;;;;2.99;100.00;153289.81;4988485;28;20038;-74
2022/11/17 09:19:16;;;;;;;16.20;13.00;;;;;;;3.06;100.00;153307.69;4998133;28;20125;-74
2022/11/17 09:21:41;;;;;;;23.08;14.02;;;;;;;3.06;100.00;153307.69;4992573;28;20049;-74
2022/11/17 09:24:08;;;;;;;15.63;12.75;;;;;;;3.06;100.00;153307.69;4977339;28;20034;-75
2022/11/17 09:26:34;;;;;;;16.52;12.80;;;;;;;3.09;100.00;153316.63;4991780;28;20029;-75
2022/11/17 09:29:01;;;;;;;16.92;12.98;;;;;;;3.09;100.00;153316.63;4991149;28;20029;-74
2022/11/17 09:31:27;;;;;;;18.73;13.23;;;;;;;3.08;100.00;153314.06;5008039;28;20037;-75
2022/11/17 09:33:53;;;;;;;15.00;12.90;;;;;;;3.09;100.00;153315.38;5006839;28;20029;-74
2022/11/17 09:36:19;;;;;;;17.83;12.90;;;;;;;3.13;100.00;153325.56;5009344;28;20053;-75
2022/11/17 09:38:47;;;;;;;15.35;12.90;;;;;;;3.12;100.00;153323.00;4990514;28;20112;-76
2022/11/17 09:41:31;;;;;;;18.13;12.93;;;;;;;3.19;100.00;153339.63;5005697;28;20033;-75
2022/11/17 09:44:25;;;;;;;17.00;12.88;;;;;;;3.15;100.00;153329.41;5001783;28;20125;-74
2022/11/17 09:47:05;;;;;;;16.42;13.15;;;;;;;3.20;100.00;153343.47;5003772;28;20506;-74
2022/11/17 09:49:55;;;;;;;16.80;12.65;;;;;;;3.24;100.00;153352.34;4980532;28;20145;-73
2022/11/17 09:52:27;;;;;;;17.40;13.38;;;;;;;3.25;100.00;153354.94;5004416;28;20443;-74
2022/11/17 09:55:44;;;;;;;16.88;12.70;;;;;;;3.26;100.00;153358.75;4990919;28;20038;-74
2022/11/17 09:58:32;;;;;;;16.20;13.52;;;;;;;3.24;100.00;153353.66;4970333;28;20034;-76
2022/11/17 10:00:59;;;;;;;14.38;12.70;;;;;;;3.24;100.00;153353.66;4974604;28;20165;-74
2022/11/17 10:03:30;;;;;;;16.95;14.43;;;;;;;3.26;100.00;153357.50;4988469;28;20103;-74
2022/11/17 10:05:57;;;;;;;19.25;13.77;;;;;;;3.30;100.00;153368.97;5001313;28;20038;-74
2022/11/17 10:08:41;;;;;;;18.65;14.23;;;;;;;3.29;100.00;153366.38;5006490;28;20049;-74
2022/11/17 10:14:00;;;;;;;15.63;13.27;;;;;;;3.32;100.00;153372.81;5003013;28;20029;-75
2022/11/17 10:16:25;;;;;;;19.35;14.95;;;;;;;3.34;100.00;153376.66;4992521;28;20484;-75
2022/11/17 10:18:51;;;;;;;16.35;14.00;;;;;;;3.35;100.00;153379.19;4971263;28;20105;-75
2022/11/17 10:21:16;;;;;;;16.85;13.48;;;;;;;3.41;100.00;153394.47;4987687;28;20045;-75
2022/11/17 10:23:45;;;;;;;18.88;13.30;;;;;;;3.37;100.00;153384.28;5007470;28;20056;-73
2022/11/17 10:26:13;;;;;;;16.10;13.30;;;;;;;3.34;100.00;153377.91;5007704;28;20033;-76
2022/11/17 10:28:39;;;;;;;16.95;13.30;;;;;;;3.38;100.00;153386.84;4987158;28;20037;-74
2022/11/17 10:31:18;;;;;;;14.98;13.40;;;;;;;3.36;100.00;153383.00;5004056;28;20074;-75
2022/11/17 10:33:47;;;;;;;16.08;13.70;;;;;;;3.37;100.00;153384.28;5009197;28;20629;-75
2022/11/17 10:36:30;;;;;;;18.02;15.10;;;;;;;3.26;100.00;153358.75;5005111;28;20483;-75
2022/11/17 10:38:56;;;;;;;;;;;;;;;3.24;100.00;153352.34;4995997;28;20037;-75
2022/11/17 10:41:37;;;;;;;17.83;13.65;;;;;;;3.23;100.00;153349.81;4985741;28;19955;-74
2022/11/17 10:44:23;;;;;;;20.35;15.05;;;;;;;3.21;100.00;153344.72;5004597;28;20041;-74
2022/11/17 10:46:56;;;;;;;22.98;14.77;;;;;;;3.22;100.00;153348.56;5006451;28;20030;-74
2022/11/17 10:49:32;;;;;;;17.85;14.68;;;;;;;3.20;100.00;153343.47;4996865;28;20119;-74
2022/11/17 10:52:10;;;;;;;16.60;14.70;;;;;;;3.25;100.00;153356.19;4994568;28;20045;-74
2022/11/17 10:54:36;;;;;;;16.73;14.70;;;;;;;3.26;100.00;153357.50;4985166;28;20038;-75
2022/11/17 10:57:08;;;;;;;18.63;15.05;;;;;;;3.22;100.00;153347.25;5000510;28;20030;-73
2022/11/17 10:59:44;;;;;;;19.40;14.63;;;;;;;3.21;100.00;153344.72;4989787;28;20026;-75
2022/11/17 11:02:37;;;;;;;19.33;14.75;;;;;;;3.15;100.00;153329.41;4980903;28;20034;-76
2022/11/17 11:05:16;;;;;;;17.88;15.10;;;;;;;3.15;100.00;153330.69;5017407;28;20057;-75
2022/11/17 11:07:42;;;;;;;23.38;16.00;;;;;;;3.15;100.00;153329.41;5002018;28;20030;-76
2022/11/17 11:10:25;;;;;;;21.23;16.85;;;;;;;3.17;100.00;153334.53;5006427;28;20656;-74
2022/11/17 11:13:09;;;;;;;21.77;16.50;;;;;;;3.16;100.00;153333.22;5001626;28;20052;-75
2022/11/17 11:15:35;;;;;;;21.27;16.10;;;;;;;3.18;100.00;153338.31;4995737;28;20025;-74
2022/11/17 11:18:10;;;;;;;18.75;15.70;;;;;;;3.21;100.00;153345.97;4973197;28;20038;-74
2022/11/17 11:20:46;;;;;;;18.45;15.93;;;;;;;3.22;100.00;153348.56;5005373;28;20105;-74
2022/11/17 11:23:25;;;;;;;18.52;16.52;;;;;;;3.22;100.00;153347.25;5005908;28;20534;-74
2022/11/17 11:25:57;;;;;;;19.90;16.23;;;;;;;3.22;100.00;153347.25;4956852;28;20114;-74
2022/11/17 11:28:55;;;;;;;20.27;16.52;;;;;;;3.20;100.00;153342.16;4965113;28;20041;-74
2022/11/17 11:31:48;;;;;;;19.08;15.43;;;;;;;3.15;100.00;153329.41;5005091;28;20038;-75
2022/11/17 11:34:32;;;;;;;;;;;;;;;3.11;100.00;153321.75;4992130;28;20203;-74
2022/11/17 11:37:08;;;;;;;19.23;14.48;;;;;;;3.09;100.00;153315.38;5006266;28;19913;-75
2022/11/17 11:39:39;;;;;;;22.80;15.25;;;;;;;3.05;100.00;153306.44;5009871;28;20033;-75
2022/11/17 11:42:41;;;;;;;18.48;15.45;;;;;;;3.06;100.00;153308.97;5009509;28;20048;-76
2022/11/17 11:45:27;;;;;;;21.25;16.60;;;;;;;3.05;100.00;153305.13;4993549;28;20134;-75
2022/11/17 11:48:18;;;;;;;18.27;15.93;;;;;;;3.00;100.00;153293.66;5010447;28;20484;-76
2022/11/17 11:51:09;;;;;;;19.50;16.83;;;;;;;2.98;100.00;153288.56;5008143;28;20042;-75
2022/11/17 11:53:50;;;;;;;19.58;17.15;;;;;;;2.93;100.00;153275.78;4990227;28;20049;-75
2022/11/17 11:56:38;;;;;;;22.30;17.17;;;;;;;2.97;100.00;153285.97;5000676;28;20034;-75
2022/11/17 11:59:12;;;;;;;26.65;17.48;;;;;;;2.93;100.00;153275.78;5009687;28;20042;-74
2022/11/17 12:01:54;;;;;;;24.00;17.55;;;;;;;2.90;100.00;153269.41;5020976;28;20046;-75
2022/11/17 12:04:23;;;;;;;24.45;16.77;;;;;;;2.91;100.00;153270.69;5008158;28;20069;-75